Date,TemperatureHighF,TemperatureAvgF,TemperatureLowF,DewpointHighF,DewpointAvgF,DewpointLowF,HumidityHigh,HumidityAvg,HumidityLow,PressureMaxIn,PressureMinIn,WindSpeedMaxMPH,WindSpeedAvgMPH,GustSpeedMaxMPH,PrecipitationSumIn
2013-11-1,52,46,39,51,44,37,99,93,87,29.56,28.75,12,2,18,0.31
2013-11-2,40,37,33,37,29,22,86,75,60,30.07,29.56,15,8,16,0.00
2013-11-3,39,34,29,34,26,20,86,72,61,30.32,30.07,12,5,14,0.00
2013-11-4,46,43,39,40,36,33,83,78,68,30.34,30.08,25,14,32,0.00
2013-11-5,56,48,42,46,40,36,95,75,54,30.11,29.91,13,3,17,0.06
2013-11-6,50,44,35,49,42,34,97,94,84,29.91,29.48,14,4,19,0.64
2013-11-7,39,34,32,35,32,31,96,94,84,29.92,29.79,9,1,17,0.23
2013-11-8,37,33,32,34,32,31,97,95,90,30.08,29.92,6,0,8,0.13
2013-11-9,42,38,34,42,37,32,96,93,86,29.97,29.47,20,6,28,0.49
2013-11-10,39,36,30,37,33,29,95,87,72,30.04,29.55,14,3,19,0.14
2013-11-11,40,28,19,33,24,13,94,83,69,30.26,29.80,17,4,23,0.02
2013-11-12,27,24,19,22,18,13,91,78,61,30.40,30.26,13,3,21,0.00
2013-11-13,42,34,20,34,25,13,82,71,58,30.29,29.70,17,4,27,0.01
2013-11-14,47,42,37,38,36,32,95,81,65,29.72,29.67,10,2,14,0.11
2013-11-15,51,41,35,43,38,34,97,90,67,29.83,29.69,7,1,11,0.00
2013-11-16,48,42,32,46,40,31,98,92,84,29.84,29.43,17,7,24,0.33
2013-11-17,55,52,47,54,51,46,98,96,94,29.44,28.80,22,6,30,1.79
2013-11-18,41,33,29,39,30,22,95,89,76,29.94,29.02,20,6,27,0.13
2013-11-19,30,27,24,25,22,20,91,81,73,30.28,29.95,9,3,20,0.00
2013-11-20,40,36,28,36,32,26,93,84,76,30.29,30.13,16,9,21,0.00
2013-11-21,40,39,35,38,35,32,97,88,78,30.13,30.05,11,2,14,0.02
2013-11-22,38,30,23,37,28,20,97,91,82,30.21,30.04,11,2,16,0.07
2013-11-23,27,16,9,25,9,0,93,73,58,30.39,30.08,17,6,27,0.00
2013-11-24,23,13,6,19,8,1,92,79,69,30.45,30.05,11,2,18,0.00
2013-11-25,34,30,23,30,27,18,94,87,80,30.03,29.66,11,4,22,0.00
2013-11-26,34,29,22,29,25,18,93,86,78,29.91,29.73,8,2,13,0.00
2013-11-27,22,16,9,12,8,5,85,73,59,30.09,29.90,19,6,25,0.00
2013-11-28,18,13,7,14,9,4,90,82,68,30.39,30.10,10,3,11,0.00
2013-11-29,29,19,5,24,15,2,90,84,75,30.55,30.38,10,2,13,0.00
2013-11-30,32,30,28,31,27,22,96,87,76,30.38,29.92,12,4,22,0.00